Terminal Aerodrome Forecast
Issued by NWS Flagstaff, AZ

Home | Current Version | Previous Version | Text Only | Print | Product List | Glossary On
Versions: 1 2 3 4 5 6 7 8 9 10 11 12 13
466
FTUS45 KFGZ 201143
TAFFLG
TAF
KFLG 201143Z 2012/2112 24006KT P6SM FEW250
     FM201600 22010G18KT P6SM FEW250
     FM201800 21020G28KT P6SM SKC
     FM210300 23012KT P6SM SKC=

USA.gov is the U.S. government's official web portal to all federal, state and local government web resources and services.